createdAt,value
2019-03-01T00:02:05.812Z,5.30
2019-03-01T00:05:15.143Z,4.83
2019-03-01T00:08:07.936Z,4.70
2019-03-01T00:11:14.796Z,4.27
2019-03-01T00:14:28.975Z,3.47
2019-03-01T00:17:35.251Z,3.57
2019-03-01T00:20:45.687Z,4.47
2019-03-01T00:24:01.772Z,3.33
2019-03-01T00:26:56.671Z,3.90
2019-03-01T00:30:13.276Z,3.80
2019-03-01T00:32:58.103Z,4.17
2019-03-01T00:35:57.644Z,4.20
2019-03-01T00:38:55.928Z,3.37
2019-03-01T00:41:46.531Z,3.60
2019-03-01T00:44:31.082Z,3.37
2019-03-01T00:47:00.689Z,3.53
2019-03-01T00:49:32.960Z,3.47
2019-03-01T00:52:02.102Z,3.40
2019-03-01T00:54:31.403Z,3.53
2019-03-01T00:57:00.861Z,4.20
2019-03-01T00:59:30.079Z,4.40
2019-03-01T01:01:59.669Z,4.17
2019-03-01T01:04:28.815Z,4.37
2019-03-01T01:06:57.700Z,4.97
2019-03-01T01:09:26.771Z,4.60
2019-03-01T01:11:55.987Z,4.80
2019-03-01T01:14:25.251Z,5.10
2019-03-01T01:16:55.056Z,5.47
2019-03-01T01:19:24.664Z,5.10
2019-03-01T01:21:54.171Z,6.00
2019-03-01T01:24:23.364Z,4.83
2019-03-01T01:26:52.664Z,4.27
2019-03-01T01:29:21.795Z,4.80
2019-03-01T01:31:51.059Z,5.30
2019-03-01T01:34:20.571Z,6.60
2019-03-01T01:36:50.386Z,5.83
2019-03-01T01:39:19.685Z,5.97
2019-03-01T01:41:49.184Z,6.63
2019-03-01T01:44:18.328Z,5.40
2019-03-01T01:46:47.492Z,5.73
2019-03-01T01:49:16.603Z,5.43
2019-03-01T01:51:45.674Z,5.20
2019-03-01T01:54:14.877Z,4.70
2019-03-01T01:56:44.048Z,4.73
2019-03-01T01:59:12.928Z,4.80
2019-03-01T02:01:42.142Z,4.73
2019-03-01T02:04:11.849Z,4.40
2019-03-01T02:06:41.380Z,5.60
2019-03-01T02:09:20.726Z,5.20
2019-03-01T02:11:50.579Z,5.03
2019-03-01T02:14:19.538Z,4.80
2019-03-01T02:16:49.123Z,4.50
2019-03-01T02:19:18.345Z,3.77
2019-03-01T02:21:47.924Z,4.50
2019-03-01T02:25:02.303Z,4.30
2019-03-01T02:27:31.297Z,4.50
2019-03-01T02:30:01.670Z,4.10
2019-03-01T02:32:44.685Z,3.80
2019-03-01T02:35:15.976Z,4.33
2019-03-01T02:37:44.838Z,4.20
2019-03-01T02:40:14.076Z,4.23
2019-03-01T02:42:43.002Z,4.20
2019-03-01T02:45:14.040Z,3.60
2019-03-01T02:47:43.591Z,4.13
2019-03-01T02:50:13.849Z,4.20
2019-03-01T02:52:43.016Z,3.60
2019-03-01T02:55:13.406Z,4.13
2019-03-01T02:57:42.491Z,3.87
2019-03-01T03:00:17.258Z,4.20
2019-03-01T03:02:46.174Z,3.80
2019-03-01T03:05:15.450Z,4.30
2019-03-01T03:07:49.956Z,3.60
2019-03-01T03:10:19.736Z,3.90
2019-03-01T03:12:49.548Z,3.90
2019-03-01T03:15:22.685Z,3.30
2019-03-01T03:17:51.581Z,3.87
2019-03-01T03:20:20.792Z,3.83
2019-03-01T03:22:50.905Z,3.83
2019-03-01T03:25:20.225Z,3.80
2019-03-01T03:27:49.216Z,4.10
2019-03-01T03:30:19.003Z,4.37
2019-03-01T03:32:48.532Z,4.37
2019-03-01T03:35:17.410Z,4.07
2019-03-01T03:37:46.557Z,4.30
2019-03-01T03:40:15.899Z,4.60
2019-03-01T03:42:45.773Z,4.33
2019-03-01T03:45:14.754Z,3.30
2019-03-01T03:47:43.623Z,3.33
2019-03-01T03:50:12.774Z,3.70
2019-03-01T03:52:41.991Z,2.93
2019-03-01T03:55:12.341Z,3.97
2019-03-01T03:57:42.480Z,3.67
2019-03-01T04:00:17.487Z,4.27
2019-03-01T04:02:46.467Z,4.07
2019-03-01T04:05:15.977Z,3.60
2019-03-01T04:07:46.094Z,4.23
2019-03-01T04:10:15.519Z,3.73
2019-03-01T04:12:44.379Z,3.40
2019-03-01T04:15:14.084Z,3.63
2019-03-01T04:17:43.388Z,3.60
2019-03-01T04:20:14.369Z,3.50
2019-03-01T04:22:43.721Z,3.77
2019-03-01T04:25:12.967Z,3.90
2019-03-01T04:27:42.221Z,3.70
2019-03-01T04:30:13.838Z,4.17
2019-03-01T04:32:43.124Z,3.80
2019-03-01T04:35:12.973Z,4.83
2019-03-01T04:37:42.191Z,3.50
2019-03-01T04:40:11.764Z,3.87
2019-03-01T04:42:41.200Z,3.57
2019-03-01T04:45:11.055Z,3.97
2019-03-01T04:47:40.215Z,3.97
2019-03-01T04:50:09.614Z,4.20
2019-03-01T04:52:39.547Z,3.50
2019-03-01T04:55:11.215Z,3.93
2019-03-01T04:57:40.480Z,4.00
2019-03-01T05:00:12.819Z,3.70
2019-03-01T05:02:42.092Z,4.33
2019-03-01T05:05:11.284Z,4.23
2019-03-01T05:07:40.561Z,3.53
2019-03-01T05:10:10.959Z,3.67
2019-03-01T05:12:40.072Z,2.90
2019-03-01T05:15:11.075Z,3.47
2019-03-01T05:17:40.218Z,3.50
2019-03-01T05:20:09.675Z,3.60
2019-03-01T05:22:38.920Z,4.37
2019-03-01T05:25:07.843Z,3.40
2019-03-01T05:27:36.652Z,3.30
2019-03-01T05:30:08.991Z,4.37
2019-03-01T05:32:38.568Z,3.47
2019-03-01T05:35:08.481Z,3.00
2019-03-01T05:37:38.298Z,3.50
2019-03-01T05:40:08.272Z,3.13
2019-03-01T05:42:37.508Z,2.93
2019-03-01T05:45:09.608Z,3.03
2019-03-01T05:47:39.291Z,2.60
2019-03-01T05:50:09.396Z,3.00
2019-03-01T05:52:38.751Z,3.43
2019-03-01T05:55:07.733Z,2.90
2019-03-01T05:57:37.756Z,3.00
2019-03-01T06:00:08.552Z,3.50
2019-03-01T06:03:20.144Z,3.03
2019-03-01T06:05:49.217Z,2.70
2019-03-01T06:08:45.069Z,4.00
2019-03-01T06:11:40.636Z,3.10
2019-03-01T06:14:40.901Z,3.00
2019-03-01T06:17:49.091Z,3.03
2019-03-01T06:20:40.842Z,1.87
2019-03-01T06:23:17.987Z,2.40
2019-03-01T06:26:15.996Z,2.37
2019-03-01T06:29:22.274Z,2.33
2019-03-01T06:32:20.523Z,2.53
2019-03-01T06:35:30.844Z,2.70
2019-03-01T06:38:59.827Z,2.63
2019-03-01T06:42:03.137Z,2.77
2019-03-01T06:45:04.867Z,3.17
2019-03-01T06:47:45.584Z,3.73
2019-03-01T06:50:19.436Z,3.50
2019-03-01T06:52:48.403Z,3.03
2019-03-01T06:55:56.769Z,3.20
2019-03-01T06:58:28.196Z,3.67
2019-03-01T07:01:04.556Z,4.00
2019-03-01T07:03:33.477Z,4.50
2019-03-01T07:06:03.549Z,4.03
2019-03-01T07:08:33.084Z,4.30
2019-03-01T07:11:05.701Z,3.63
2019-03-01T07:13:34.881Z,3.50
2019-03-01T07:16:06.848Z,3.67
2019-03-01T07:18:36.669Z,3.57
2019-03-01T07:21:05.838Z,3.23
2019-03-01T07:23:37.021Z,4.30
2019-03-01T07:26:05.796Z,3.97
2019-03-01T07:28:35.024Z,4.73
2019-03-01T07:31:07.060Z,3.93
2019-03-01T07:33:36.663Z,4.00
2019-03-01T07:36:06.134Z,3.90
2019-03-01T07:38:35.328Z,3.53
2019-03-01T07:41:04.937Z,4.17
2019-03-01T07:43:34.336Z,3.63
2019-03-01T07:46:03.741Z,3.83
2019-03-01T07:48:32.841Z,3.60
2019-03-01T07:51:02.476Z,3.97
2019-03-01T07:53:31.758Z,3.63
2019-03-01T07:56:04.196Z,3.33
2019-03-01T07:58:32.193Z,3.20
2019-03-01T08:01:03.053Z,3.37
2019-03-01T08:03:32.441Z,2.70
2019-03-01T08:06:03.521Z,2.80
2019-03-01T08:08:34.924Z,2.60
2019-03-01T08:11:03.759Z,1.90
2019-03-01T08:13:33.013Z,2.10
2019-03-01T08:16:01.918Z,2.43
2019-03-01T08:18:31.502Z,3.00
2019-03-01T08:21:00.713Z,3.17
2019-03-01T08:23:31.758Z,2.90
2019-03-01T08:26:03.609Z,1.73
2019-03-01T08:28:32.703Z,1.60
2019-03-01T08:31:02.213Z,2.00
2019-03-01T08:33:31.721Z,1.40
2019-03-01T08:36:02.359Z,0.90
2019-03-01T08:38:33.370Z,1.13
2019-03-01T08:41:03.606Z,1.10
2019-03-01T08:43:33.009Z,1.10
2019-03-01T08:46:05.376Z,0.90
2019-03-01T08:48:34.581Z,1.00
2019-03-01T08:51:04.191Z,1.37
2019-03-01T08:53:33.611Z,1.13
2019-03-01T08:56:05.451Z,1.67
2019-03-01T08:58:37.786Z,1.00
2019-03-01T09:01:08.383Z,1.30
2019-03-01T09:03:54.238Z,1.23
2019-03-01T09:06:23.644Z,1.27
2019-03-01T09:08:52.850Z,1.00
2019-03-01T09:11:22.040Z,1.20
2019-03-01T09:13:51.163Z,1.80
2019-03-01T09:16:20.271Z,1.43
2019-03-01T09:18:50.075Z,1.93
2019-03-01T09:21:20.456Z,2.70
2019-03-01T09:23:52.278Z,2.57
2019-03-01T09:26:20.879Z,3.10
2019-03-01T09:28:49.799Z,3.27
2019-03-01T09:31:19.104Z,3.13
2019-03-01T09:33:47.901Z,4.10
2019-03-01T09:36:27.111Z,3.30
2019-03-01T09:38:56.240Z,4.10
2019-03-01T09:41:25.111Z,5.37
2019-03-01T09:43:54.231Z,4.50
2019-03-01T09:46:24.716Z,5.33
2019-03-01T09:48:54.439Z,4.40
2019-03-01T09:51:23.777Z,4.20
2019-03-01T09:53:53.408Z,3.70
2019-03-01T09:56:24.394Z,3.40
2019-03-01T09:58:53.488Z,3.47
2019-03-01T10:01:22.871Z,3.90
2019-03-01T10:03:51.893Z,2.83
2019-03-01T10:06:21.494Z,3.03
2019-03-01T10:08:50.752Z,4.00
2019-03-01T10:11:20.316Z,3.50
2019-03-01T10:13:50.032Z,3.10
2019-03-01T10:16:18.946Z,4.00
2019-03-01T10:18:48.209Z,3.87
2019-03-01T10:21:17.388Z,3.13
2019-03-01T10:23:46.545Z,3.47
2019-03-01T10:26:15.579Z,3.20
2019-03-01T10:28:45.561Z,3.63
2019-03-01T10:31:15.104Z,3.10
2019-03-01T10:33:44.432Z,4.00
2019-03-01T10:36:13.399Z,3.80
2019-03-01T10:38:43.155Z,3.60
2019-03-01T10:41:12.051Z,4.67
2019-03-01T10:43:40.860Z,4.90
2019-03-01T10:46:10.113Z,3.70
2019-03-01T10:48:39.623Z,3.57
2019-03-01T10:51:08.835Z,4.70
2019-03-01T10:53:38.423Z,4.03
2019-03-01T10:56:07.280Z,4.43
2019-03-01T10:58:37.057Z,4.13
2019-03-01T11:01:06.006Z,3.87
2019-03-01T11:03:35.229Z,3.90
2019-03-01T11:06:04.528Z,4.77
2019-03-01T11:08:33.411Z,3.20
2019-03-01T11:11:02.664Z,3.83
2019-03-01T11:13:32.488Z,3.83
2019-03-01T11:16:01.660Z,3.53
2019-03-01T11:18:30.830Z,3.67
2019-03-01T11:21:00.437Z,3.30
2019-03-01T11:23:30.587Z,3.53
2019-03-01T11:25:59.368Z,4.30
2019-03-01T11:28:28.912Z,4.57
2019-03-01T11:30:58.412Z,4.13
2019-03-01T11:33:27.648Z,4.17
2019-03-01T11:35:57.216Z,3.90
2019-03-01T11:38:26.929Z,4.70
2019-03-01T11:40:56.120Z,5.10
2019-03-01T11:43:25.719Z,5.67
2019-03-01T11:45:55.236Z,5.97
2019-03-01T11:48:24.441Z,6.33
2019-03-01T11:50:53.842Z,5.17
2019-03-01T11:53:23.038Z,5.73
2019-03-01T11:55:52.336Z,7.07
2019-03-01T11:58:21.516Z,7.40
2019-03-01T12:00:52.307Z,9.03
2019-03-01T12:03:21.705Z,9.53
2019-03-01T12:05:50.931Z,8.40
2019-03-01T12:08:19.807Z,10.77
2019-03-01T12:10:48.691Z,9.83
2019-03-01T12:13:17.931Z,12.60
2019-03-01T12:15:47.148Z,15.80
2019-03-01T12:18:16.760Z,17.20
2019-03-01T12:20:45.847Z,19.20
2019-03-01T12:23:15.252Z,21.63
2019-03-01T12:25:44.452Z,20.97
2019-03-01T12:28:13.303Z,23.63
2019-03-01T12:30:42.582Z,25.00
2019-03-01T12:33:12.348Z,27.20
2019-03-01T12:35:41.548Z,28.67
2019-03-01T12:38:10.751Z,30.20
2019-03-01T12:40:40.104Z,29.70
2019-03-01T12:43:08.943Z,34.53
2019-03-01T12:45:37.733Z,32.83
2019-03-01T12:48:06.881Z,31.50
2019-03-01T12:50:37.041Z,32.43
2019-03-01T12:53:06.147Z,32.23
2019-03-01T12:55:35.644Z,33.00
2019-03-01T12:58:04.967Z,34.20
2019-03-01T13:00:33.963Z,32.37
2019-03-01T13:03:05.164Z,35.20
2019-03-01T13:05:34.383Z,34.97
2019-03-01T13:08:03.257Z,30.90
2019-03-01T13:10:32.144Z,37.00
2019-03-01T13:13:02.230Z,37.07
2019-03-01T13:15:32.332Z,37.70
2019-03-01T13:18:04.605Z,32.63
2019-03-01T13:20:37.260Z,36.03
2019-03-01T13:23:06.360Z,34.53
2019-03-01T13:25:35.408Z,35.73
2019-03-01T13:28:08.640Z,36.60
2019-03-01T13:30:37.951Z,34.47
2019-03-01T13:33:07.436Z,32.47
2019-03-01T13:35:36.528Z,35.70
2019-03-01T13:38:05.830Z,36.60
2019-03-01T13:40:35.332Z,33.87
2019-03-01T13:43:05.347Z,36.50
2019-03-01T13:45:34.684Z,35.33
2019-03-01T13:48:03.564Z,37.10
2019-03-01T13:50:32.751Z,37.90
2019-03-01T13:53:03.070Z,31.50
2019-03-01T13:55:31.958Z,33.17
2019-03-01T13:58:00.847Z,35.47
2019-03-01T14:00:29.919Z,34.17
2019-03-01T14:02:58.889Z,35.87
2019-03-01T14:05:28.032Z,29.30
2019-03-01T14:07:57.128Z,30.77
2019-03-01T14:10:26.175Z,32.50
2019-03-01T14:12:55.839Z,31.53
2019-03-01T14:15:24.704Z,33.60
2019-03-01T14:17:53.911Z,32.70
2019-03-01T14:20:23.223Z,27.70
2019-03-01T14:22:52.417Z,25.80
2019-03-01T14:25:21.331Z,25.77
2019-03-01T14:27:52.803Z,31.17
2019-03-01T14:30:21.568Z,27.80
2019-03-01T14:32:50.499Z,29.90
2019-03-01T14:35:20.558Z,27.60
2019-03-01T14:37:54.217Z,24.03
2019-03-01T14:40:22.766Z,26.70
2019-03-01T14:42:52.612Z,26.87
2019-03-01T14:45:25.334Z,24.90
2019-03-01T14:47:54.338Z,21.57
2019-03-01T14:50:24.823Z,22.30
2019-03-01T14:52:58.487Z,21.80
2019-03-01T14:55:28.888Z,20.87
2019-03-01T14:58:05.560Z,20.30
2019-03-01T15:01:04.792Z,21.67
2019-03-01T15:03:35.250Z,23.77
2019-03-01T15:06:05.718Z,21.70
2019-03-01T15:08:34.780Z,20.37
2019-03-01T15:11:08.030Z,21.60
2019-03-01T15:13:37.497Z,22.20
2019-03-01T15:16:07.082Z,21.13
2019-03-01T15:18:37.135Z,22.10
2019-03-01T15:21:07.196Z,22.50
2019-03-01T15:23:36.451Z,24.43
2019-03-01T15:26:06.059Z,22.20
2019-03-01T15:28:44.388Z,24.00
2019-03-01T15:31:14.160Z,21.67
2019-03-01T15:33:46.510Z,20.87
2019-03-01T15:36:17.919Z,21.80
2019-03-01T15:38:45.639Z,24.40
2019-03-01T15:41:14.638Z,22.00
2019-03-01T15:43:43.750Z,22.50
2019-03-01T15:46:14.389Z,23.70
2019-03-01T15:48:43.353Z,22.63
2019-03-01T15:51:12.711Z,25.33
2019-03-01T15:53:41.590Z,22.67
2019-03-01T15:56:10.872Z,24.03
2019-03-01T15:58:39.956Z,19.93
2019-03-01T16:01:11.907Z,24.60
2019-03-01T16:03:42.108Z,22.70
2019-03-01T16:06:17.251Z,25.50
2019-03-01T16:08:43.858Z,24.63
2019-03-01T16:11:14.549Z,24.63
2019-03-01T16:13:47.735Z,24.50
2019-03-01T16:16:15.101Z,25.10
2019-03-01T16:18:44.283Z,26.40
2019-03-01T16:21:14.096Z,22.83
2019-03-01T16:23:42.928Z,22.90
2019-03-01T16:26:12.033Z,24.50
2019-03-01T16:28:41.194Z,24.97
2019-03-01T16:31:10.098Z,24.57
2019-03-01T16:33:39.059Z,24.93
2019-03-01T16:36:27.680Z,24.00
2019-03-01T16:38:57.081Z,23.83
2019-03-01T16:41:25.859Z,24.33
2019-03-01T16:43:55.423Z,24.40
2019-03-01T16:46:24.719Z,21.57
2019-03-01T16:48:53.927Z,21.67
2019-03-01T16:51:23.129Z,21.33
2019-03-01T16:53:52.018Z,20.87
2019-03-01T16:56:20.913Z,17.50
2019-03-01T16:58:50.404Z,19.27
2019-03-01T17:01:19.607Z,18.10
2019-03-01T17:03:49.624Z,17.27
2019-03-01T17:06:19.412Z,17.13
2019-03-01T17:08:49.128Z,18.00
2019-03-01T17:11:18.338Z,17.83
2019-03-01T17:13:47.735Z,17.47
2019-03-01T17:16:20.533Z,17.50
2019-03-01T17:18:48.665Z,16.87
2019-03-01T17:21:17.783Z,17.23
2019-03-01T17:23:46.876Z,16.30
2019-03-01T17:26:16.215Z,17.00
2019-03-01T17:28:45.280Z,18.00
2019-03-01T17:31:14.484Z,18.43
2019-03-01T17:33:45.050Z,16.93
2019-03-01T17:36:16.793Z,17.40
2019-03-01T17:38:46.463Z,19.37
2019-03-01T17:41:16.081Z,19.60
2019-03-01T17:43:44.959Z,18.27
2019-03-01T17:46:14.072Z,18.30
2019-03-01T17:48:43.515Z,15.20
2019-03-01T17:51:12.673Z,18.27
2019-03-01T17:53:43.062Z,18.17
2019-03-01T17:56:14.169Z,17.47
2019-03-01T17:58:43.255Z,15.90
2019-03-01T18:01:12.956Z,18.50
2019-03-01T18:03:42.005Z,16.33
2019-03-01T18:06:12.893Z,18.43
2019-03-01T18:08:41.872Z,18.60
2019-03-01T18:11:11.535Z,16.53
2019-03-01T18:13:40.585Z,16.23
2019-03-01T18:16:09.916Z,12.50
2019-03-01T18:18:39.414Z,14.90
2019-03-01T18:21:10.229Z,14.80
2019-03-01T18:23:39.601Z,14.33
2019-03-01T18:26:08.871Z,13.97
2019-03-01T18:28:38.904Z,14.10
2019-03-01T18:31:08.237Z,15.07
2019-03-01T18:33:37.784Z,13.47
2019-03-01T18:36:08.101Z,13.73
2019-03-01T18:38:37.607Z,13.37
2019-03-01T18:41:06.608Z,13.63
2019-03-01T18:43:35.593Z,15.00
2019-03-01T18:46:04.751Z,11.67
2019-03-01T18:48:33.906Z,13.40
2019-03-01T18:51:06.938Z,12.10
2019-03-01T18:53:36.744Z,13.10
2019-03-01T18:56:05.608Z,10.23
2019-03-01T18:58:35.480Z,9.30
2019-03-01T19:01:07.767Z,11.00
2019-03-01T19:03:36.611Z,12.63
2019-03-01T19:06:06.927Z,12.00
2019-03-01T19:08:36.426Z,12.43
2019-03-01T19:11:05.421Z,12.27
2019-03-01T19:13:34.305Z,14.10
2019-03-01T19:16:03.284Z,15.57
2019-03-01T19:18:32.076Z,15.33
2019-03-01T19:21:06.959Z,16.37
2019-03-01T19:23:36.119Z,17.17
2019-03-01T19:26:05.260Z,20.27
2019-03-01T19:28:34.249Z,20.57
2019-03-01T19:31:03.123Z,16.00
2019-03-01T19:33:34.675Z,17.80
2019-03-01T19:36:04.324Z,16.97
2019-03-01T19:38:33.802Z,16.40
2019-03-01T19:41:02.973Z,14.53
2019-03-01T19:43:32.476Z,17.93
2019-03-01T19:46:01.606Z,15.67
2019-03-01T19:48:30.507Z,16.00
2019-03-01T19:51:01.902Z,13.80
2019-03-01T19:53:31.420Z,15.07
2019-03-01T19:56:00.652Z,12.80
2019-03-01T19:58:30.527Z,10.63
2019-03-01T20:00:59.363Z,11.43
2019-03-01T20:03:28.744Z,14.43
2019-03-01T20:05:58.533Z,12.50
2019-03-01T20:08:29.811Z,13.97
2019-03-01T20:10:58.579Z,12.70
2019-03-01T20:13:27.480Z,13.13
2019-03-01T20:15:57.372Z,12.70
2019-03-01T20:18:26.223Z,13.20
2019-03-01T20:20:55.874Z,15.03
2019-03-01T20:23:26.454Z,15.40
2019-03-01T20:25:55.507Z,15.27
2019-03-01T20:28:25.306Z,14.20
2019-03-01T20:30:55.709Z,16.53
2019-03-01T20:33:27.117Z,14.77
2019-03-01T20:35:56.900Z,15.77
2019-03-01T20:38:26.012Z,16.37
2019-03-01T20:40:55.112Z,15.80
2019-03-01T20:43:24.761Z,14.37
2019-03-01T20:45:53.964Z,17.03
2019-03-01T20:48:25.640Z,16.80
2019-03-01T20:50:54.191Z,17.00
2019-03-01T20:53:23.089Z,19.40
2019-03-01T20:55:52.220Z,16.33
2019-03-01T20:58:22.164Z,14.50
2019-03-01T21:00:51.342Z,16.87
2019-03-01T21:03:24.898Z,18.47
2019-03-01T21:05:51.926Z,17.03
2019-03-01T21:08:21.763Z,17.30
2019-03-01T21:10:51.096Z,16.77
2019-03-01T21:13:20.331Z,16.00
2019-03-01T21:15:49.380Z,16.67
2019-03-01T21:18:18.884Z,16.70
2019-03-01T21:20:50.574Z,17.77
2019-03-01T21:23:18.515Z,17.43
2019-03-01T21:25:48.039Z,19.63
2019-03-01T21:28:17.725Z,20.40
2019-03-01T21:30:47.128Z,18.00
2019-03-01T21:33:16.267Z,19.00
2019-03-01T21:35:47.734Z,17.87
2019-03-01T21:38:16.255Z,18.90
2019-03-01T21:40:46.973Z,17.10
2019-03-01T21:43:16.907Z,18.50
2019-03-01T21:45:46.512Z,19.63
2019-03-01T21:48:15.916Z,18.43
2019-03-01T21:50:45.151Z,19.10
2019-03-01T21:53:14.528Z,18.33
2019-03-01T21:55:43.720Z,18.70
2019-03-01T21:58:12.816Z,19.50
2019-03-01T22:00:42.631Z,19.97
2019-03-01T22:03:12.229Z,19.23
2019-03-01T22:05:41.066Z,20.30
2019-03-01T22:08:12.988Z,17.97
2019-03-01T22:10:40.364Z,21.60
2019-03-01T22:13:09.300Z,19.40
2019-03-01T22:15:38.091Z,21.23
2019-03-01T22:18:06.895Z,18.37
2019-03-01T22:20:36.044Z,17.67
2019-03-01T22:23:05.255Z,20.73
2019-03-01T22:25:37.942Z,19.63
2019-03-01T22:28:05.983Z,19.33
2019-03-01T22:30:38.059Z,19.67
2019-03-01T22:33:07.623Z,19.10
2019-03-01T22:35:36.492Z,21.20
2019-03-01T22:38:05.716Z,20.27
2019-03-01T22:40:35.028Z,22.07
2019-03-01T22:43:03.799Z,21.43
2019-03-01T22:45:32.863Z,19.97
2019-03-01T22:48:02.423Z,20.80
2019-03-01T22:50:31.300Z,21.37
2019-03-01T22:53:03.250Z,21.27
2019-03-01T22:55:33.542Z,20.93
2019-03-01T22:58:06.553Z,17.80
2019-03-01T23:01:15.960Z,19.13
2019-03-01T23:03:51.599Z,18.57
2019-03-01T23:06:21.487Z,19.07
2019-03-01T23:08:50.475Z,19.97
2019-03-01T23:11:19.448Z,19.27
2019-03-01T23:13:48.388Z,20.23
2019-03-01T23:16:18.847Z,20.30
2019-03-01T23:18:56.432Z,18.20
2019-03-01T23:21:19.591Z,19.17
2019-03-01T23:23:48.491Z,16.80
2019-03-01T23:26:18.604Z,19.20
2019-03-01T23:28:49.260Z,18.33
2019-03-01T23:31:18.701Z,17.80
2019-03-01T23:33:48.377Z,19.33
2019-03-01T23:36:17.680Z,17.87
2019-03-01T23:38:50.191Z,17.30
2019-03-01T23:41:18.527Z,17.47
2019-03-01T23:43:47.732Z,20.30
2019-03-01T23:46:17.237Z,16.27
2019-03-01T23:48:48.907Z,15.50
2019-03-01T23:51:17.902Z,16.10
2019-03-01T23:53:46.902Z,14.77
2019-03-01T23:56:16.223Z,15.53
2019-03-01T23:58:48.003Z,15.47
